Fort Myers, FL

6:37 PM EDT on July 23, 2016 (GMT -0400)
Slater Road | | Change Station

Elev 36 ft 26.73 °N, 81.85 °W | Updated 6 seconds ago

Clear
Clear
82.0 °F
Feels Like 83 °F
N
0.0
Wind Variable Wind from South
Gusts 0.0 mph

Today
High -- | Low -- °F
--% Chance of Precip.
Yesterday
High -- | Low -- °F
Precip. -- in
Pressure 30.00 in
Visibility 10.0 miles
Clouds Clear
Heat Index 83 °F
Dew Point 63 °F
Humidity 53%
Rainfall 0.00 in
Snow Depth Not available.
6:47 AM 8:19 PM
Waning Gibbous, 82% visible
METAR KFMY 232153Z 09008KT 10SM CLR 27/23 A2999 RMK AO2 LTG DSNT N TSE18 SLP159 T02720233
Pressure 30.00 in
Visibility 10.0 miles
Clouds Clear
Heat Index 83 °F
Dew Point 63 °F
Humidity 53%
Rainfall 0.00 in
Snow Depth Not available.
6:47 AM 8:19 PM
Waning Gibbous, 82% visible
METAR KFMY 232153Z 09008KT 10SM CLR 27/23 A2999 RMK AO2 LTG DSNT N TSE18 SLP159 T02720233

10-Day Weather Forecast

Almanac

Astronomy

Jul. 23, 2016 Rise Set
Actual Time
Civil Twilight
Nautical Twilight
Astronomical Twilight
Moon
Length of Visible Light
Length of Day
Tomorrow will be .
, % of the Moon is Illuminated

Today's Extremes

State Highs State Lows

Community

WunderPhotos

Upload Photos

1,926,946 photos uploaded!

WunderBlog® & News

Nearby

Air Quality

  Air Quality AQ Index Pollutant
Not available.

Snow Depth

Station Depth Elevation

Earthquake Activity

City Distance Mag. Time & Date
Minimum magnitude displayed is 2.5.

Coastal Water Temperatures

Place Temperature

Stations

Nearby Weather Stations

Station Location Temp. Windchill Dew Point Humidity Wind Precip. Elev Updated Type
                   

Watches & Warnings

There are currently no watches in effect.